Time;durP1;ratioP1;P1;durP2;ratioP2;P2;SDS_P1;SDS_P2;PMS_P1;PMS_P2;Temp;Humidity;BMP_temperature;BMP_pressure;BME280_temperature;BME280_humidity;BME280_pressure;Samples;Min_cycle;Max_cycle;Signal;HPM_P1;HPM_P2
2022/03/16 00:04:59;;;;;;;18.63;16.70;;;;;;;;;;12494456;28;20038;-77
2022/03/16 00:11:01;;;;;;;19.20;17.33;;;;;;;;;;12504383;28;20338;-76
2022/03/16 00:17:06;;;;;;;21.55;19.30;;;;;;;;;;12476149;28;20062;-76
2022/03/16 00:23:08;;;;;;;19.17;17.13;;;;;;;;;;12493769;28;20042;-77
2022/03/16 00:29:10;;;;;;;20.60;18.60;;;;;;;;;;12492647;28;20032;-76
2022/03/16 00:35:11;;;;;;;20.25;18.20;;;;;;;;;;12493669;28;20033;-77
2022/03/16 00:41:13;;;;;;;22.65;20.30;;;;;;;;;;12492456;28;20052;-77
2022/03/16 00:47:15;;;;;;;22.98;20.75;;;;;;;;;;12501712;28;20041;-76
2022/03/16 00:53:17;;;;;;;20.03;17.83;;;;;;;;;;12501319;28;20398;-77
2022/03/16 00:59:19;;;;;;;18.90;16.98;;;;;;;;;;12500782;28;20033;-76
2022/03/16 01:05:20;;;;;;;14.93;13.45;;;;;;;;;;12500580;28;20056;-79
2022/03/16 01:11:22;;;;;;;18.45;16.65;;;;;;;;;;12501439;28;20033;-79
2022/03/16 01:17:24;;;;;;;18.83;16.90;;;;;;;;;;12500407;28;20049;-79
2022/03/16 01:23:26;;;;;;;16.42;14.73;;;;;;;;;;12499632;28;20516;-79
2022/03/16 01:29:28;;;;;;;25.50;22.88;;;;;;;;;;12499433;28;20048;-79
2022/03/16 01:35:30;;;;;;;25.95;23.25;;;;;;;;;;12500594;28;20048;-76
2022/03/16 01:41:31;;;;;;;30.65;27.35;;;;;;;;;;12498785;28;20057;-77
2022/03/16 01:47:33;;;;;;;22.77;19.92;;;;;;;;;;12499225;28;20041;-76
2022/03/16 01:53:35;;;;;;;26.63;23.88;;;;;;;;;;12497512;28;20030;-76
2022/03/16 01:59:38;;;;;;;25.38;22.67;;;;;;;;;;12498168;28;20409;-76
2022/03/16 02:05:40;;;;;;;24.10;21.60;;;;;;;;;;12498063;28;20052;-78
2022/03/16 02:11:42;;;;;;;19.33;17.35;;;;;;;;;;12507434;28;20288;-76
2022/03/16 02:17:43;;;;;;;23.83;21.35;;;;;;;;;;12497789;28;20525;-76
2022/03/16 02:23:45;;;;;;;23.52;21.20;;;;;;;;;;12498400;28;20044;-76
2022/03/16 02:29:47;;;;;;;24.35;21.75;;;;;;;;;;12497993;28;20033;-76
2022/03/16 02:35:49;;;;;;;22.48;18.98;;;;;;;;;;12496626;28;20390;-75
2022/03/16 02:41:52;;;;;;;23.10;20.67;;;;;;;;;;12513839;28;20056;-76
2022/03/16 02:47:53;;;;;;;;;;;;;;;;;;12496597;28;20037;-76
2022/03/16 02:53:55;;;;;;;29.77;26.85;;;;;;;;;;12496866;28;19932;-76
2022/03/16 02:59:56;;;;;;;20.15;18.27;;;;;;;;;;12496529;28;20029;-76
2022/03/16 03:05:58;;;;;;;24.50;22.00;;;;;;;;;;12495052;28;20041;-76
2022/03/16 03:12:01;;;;;;;28.33;25.40;;;;;;;;;;12506582;28;20038;-76
2022/03/16 03:18:03;;;;;;;32.72;29.25;;;;;;;;;;12496467;28;20091;-76
2022/03/16 03:24:05;;;;;;;25.25;22.58;;;;;;;;;;12495704;28;20037;-76
2022/03/16 03:30:07;;;;;;;25.67;23.07;;;;;;;;;;12494314;28;20030;-76
2022/03/16 03:36:09;;;;;;;29.23;26.33;;;;;;;;;;12497534;28;20029;-78
2022/03/16 03:42:11;;;;;;;30.05;27.05;;;;;;;;;;12493761;28;20054;-78
2022/03/16 03:48:12;;;;;;;27.48;24.75;;;;;;;;;;12497403;28;20041;-78
2022/03/16 03:54:14;;;;;;;24.50;22.00;;;;;;;;;;12501855;28;20045;-76
2022/03/16 04:00:16;;;;;;;26.37;23.70;;;;;;;;;;12496646;28;20037;-78
2022/03/16 04:06:18;;;;;;;26.43;23.67;;;;;;;;;;12494747;28;20049;-75
2022/03/16 04:12:20;;;;;;;26.60;23.75;;;;;;;;;;12494337;28;20033;-77
2022/03/16 04:18:23;;;;;;;22.98;20.52;;;;;;;;;;12496115;28;20073;-76
2022/03/16 04:24:24;;;;;;;32.92;29.63;;;;;;;;;;12503597;28;20044;-76
2022/03/16 04:30:26;;;;;;;30.13;26.92;;;;;;;;;;12502697;28;20041;-76
2022/03/16 04:36:29;;;;;;;30.10;27.10;;;;;;;;;;12506122;28;20049;-76
2022/03/16 04:42:30;;;;;;;28.52;25.52;;;;;;;;;;12501693;28;20041;-76
2022/03/16 04:48:32;;;;;;;26.67;23.98;;;;;;;;;;12501598;28;20037;-77
2022/03/16 04:54:34;;;;;;;27.23;24.23;;;;;;;;;;12502244;28;20037;-77
2022/03/16 05:00:36;;;;;;;30.70;27.60;;;;;;;;;;12505292;28;20017;-76
2022/03/16 05:06:38;;;;;;;27.23;24.33;;;;;;;;;;12502521;28;20400;-76
2022/03/16 05:12:40;;;;;;;24.55;21.75;;;;;;;;;;12501310;28;20037;-77
2022/03/16 05:18:45;;;;;;;26.67;23.73;;;;;;;;;;12500904;28;20049;-76
2022/03/16 05:24:47;;;;;;;25.58;22.65;;;;;;;;;;12500829;28;20037;-76
2022/03/16 05:30:48;;;;;;;22.17;19.85;;;;;;;;;;12499516;28;20034;-76
2022/03/16 05:36:50;;;;;;;25.92;23.23;;;;;;;;;;12501299;28;20034;-78
2022/03/16 05:42:52;;;;;;;29.77;26.88;;;;;;;;;;12502418;28;20473;-77
2022/03/16 05:48:53;;;;;;;30.55;27.50;;;;;;;;;;12503302;28;20429;-76
2022/03/16 05:54:56;;;;;;;25.45;22.92;;;;;;;;;;12499667;28;20497;-75
2022/03/16 06:00:58;;;;;;;26.52;23.70;;;;;;;;;;12500349;28;20370;-76
2022/03/16 06:07:00;;;;;;;25.42;22.73;;;;;;;;;;12501918;28;20045;-80
2022/03/16 06:13:03;;;;;;;23.67;21.38;;;;;;;;;;12497501;28;20057;-80
2022/03/16 06:19:04;;;;;;;23.70;21.20;;;;;;;;;;12498630;28;20086;-80
2022/03/16 06:25:07;;;;;;;24.88;22.27;;;;;;;;;;12501059;28;20124;-78
2022/03/16 06:31:08;;;;;;;20.83;18.73;;;;;;;;;;12501723;28;20037;-75
2022/03/16 06:37:10;;;;;;;25.35;22.77;;;;;;;;;;12496445;28;20025;-75
2022/03/16 06:43:12;;;;;;;23.48;21.10;;;;;;;;;;12495035;28;20044;-80
2022/03/16 06:49:13;;;;;;;23.73;21.23;;;;;;;;;;12514759;28;20033;-80
2022/03/16 06:55:15;;;;;;;28.45;25.35;;;;;;;;;;12550972;28;20033;-80
2022/03/16 07:01:17;;;;;;;30.58;27.45;;;;;;;;;;12539287;28;20029;-80
2022/03/16 07:07:18;;;;;;;25.00;22.45;;;;;;;;;;12525169;28;20033;-80
2022/03/16 07:13:20;;;;;;;27.40;24.63;;;;;;;;;;12538746;28;20033;-79
2022/03/16 07:19:21;;;;;;;30.42;27.38;;;;;;;;;;12520187;28;20049;-80
2022/03/16 07:25:24;;;;;;;25.58;23.00;;;;;;;;;;12501147;28;20398;-80
2022/03/16 07:31:26;;;;;;;27.60;24.70;;;;;;;;;;12509251;28;20150;-80
2022/03/16 07:37:28;;;;;;;23.30;20.92;;;;;;;;;;12493876;28;20413;-80
2022/03/16 07:43:30;;;;;;;22.70;20.47;;;;;;;;;;12517788;28;20419;-80
2022/03/16 07:49:32;;;;;;;25.58;22.98;;;;;;;;;;12532217;28;20377;-79
2022/03/16 07:55:33;;;;;;;28.90;25.80;;;;;;;;;;12521441;28;20044;-80
2022/03/16 08:01:35;;;;;;;24.75;22.00;;;;;;;;;;12510370;28;20041;-80
2022/03/16 08:07:37;;;;;;;23.02;20.73;;;;;;;;;;12530128;28;20041;-81
2022/03/16 08:13:38;;;;;;;23.75;21.13;;;;;;;;;;12507624;28;20046;-81
2022/03/16 08:19:40;;;;;;;28.65;25.75;;;;;;;;;;12512088;28;20025;-81
2022/03/16 08:25:42;;;;;;;25.98;23.30;;;;;;;;;;12512895;28;20045;-80
2022/03/16 08:31:43;;;;;;;33.08;29.10;;;;;;;;;;12508127;28;20390;-80
2022/03/16 08:37:46;;;;;;;27.52;24.50;;;;;;;;;;12512177;28;20038;-81
2022/03/16 08:43:47;;;;;;;30.70;24.47;;;;;;;;;;12518183;28;20048;-80
2022/03/16 08:49:55;;;;;;;27.67;24.70;;;;;;;;;;12515296;28;20025;-80
2022/03/16 08:55:56;;;;;;;27.40;24.48;;;;;;;;;;12512895;28;20473;-80
2022/03/16 09:01:58;;;;;;;27.52;24.52;;;;;;;;;;12515092;28;20493;-80
2022/03/16 09:08:00;;;;;;;29.10;24.40;;;;;;;;;;12526762;28;20425;-80
2022/03/16 09:14:02;;;;;;;20.15;17.70;;;;;;;;;;12509855;28;20084;-79
2022/03/16 09:20:05;;;;;;;16.37;14.67;;;;;;;;;;12521290;28;20580;-80
2022/03/16 09:26:06;;;;;;;11.98;10.73;;;;;;;;;;12522276;28;20036;-80
2022/03/16 09:32:10;;;;;;;13.52;12.20;;;;;;;;;;12510362;28;20025;-80
2022/03/16 09:38:15;;;;;;;13.90;12.52;;;;;;;;;;12526625;28;20048;-81
2022/03/16 09:44:16;;;;;;;24.25;21.52;;;;;;;;;;12513478;28;20044;-82
2022/03/16 09:50:19;;;;;;;23.42;20.45;;;;;;;;;;12515784;28;20128;-80
2022/03/16 09:56:20;;;;;;;23.50;21.00;;;;;;;;;;12521489;28;20036;-87
2022/03/16 10:02:22;;;;;;;22.98;20.45;;;;;;;;;;12525294;28;20112;-83
2022/03/16 10:08:31;;;;;;;13.80;12.32;;;;;;;;;;12508859;28;20040;-81
2022/03/16 10:14:37;;;;;;;25.23;21.05;;;;;;;;;;12512469;28;20065;-85
2022/03/16 10:20:40;;;;;;;26.65;20.23;;;;;;;;;;12521856;28;20028;-86
2022/03/16 10:26:51;;;;;;;23.35;18.95;;;;;;;;;;12516534;28;20036;-83
2022/03/16 10:32:53;;;;;;;19.55;17.13;;;;;;;;;;12522770;28;20299;-79
2022/03/16 10:39:01;;;;;;;15.00;13.00;;;;;;;;;;12525119;28;20047;-82
2022/03/16 10:51:36;;;;;;;;;;;;;;;;;;12541414;28;20042;-82
2022/03/16 10:57:38;;;;;;;18.83;14.70;;;;;;;;;;12509863;28;20353;-84
2022/03/16 11:03:41;;;;;;;26.63;21.63;;;;;;;;;;12518111;28;20053;-87
2022/03/16 11:09:43;;;;;;;22.05;18.27;;;;;;;;;;12518842;28;20024;-84
2022/03/16 11:15:46;;;;;;;22.27;19.65;;;;;;;;;;12525417;28;20067;-85
2022/03/16 11:21:59;;;;;;;17.67;15.57;;;;;;;;;;12521147;28;20029;-86
2022/03/16 11:28:04;;;;;;;23.17;20.23;;;;;;;;;;12536360;28;20045;-85
2022/03/16 11:34:10;;;;;;;20.08;17.75;;;;;;;;;;12515586;28;20029;-85
2022/03/16 11:40:13;;;;;;;23.60;19.48;;;;;;;;;;12532164;28;20044;-86
2022/03/16 11:46:28;;;;;;;20.08;17.45;;;;;;;;;;12513394;28;20063;-86
2022/03/16 11:52:49;;;;;;;31.70;26.05;;;;;;;;;;12510855;28;20036;-87
2022/03/16 11:58:52;;;;;;;32.05;26.55;;;;;;;;;;12513070;28;20052;-85
2022/03/16 12:05:00;;;;;;;25.15;22.27;;;;;;;;;;12516483;28;20383;-88
2022/03/16 12:17:22;;;;;;;15.80;13.68;;;;;;;;;;12508776;28;20060;-82
2022/03/16 12:23:42;;;;;;;27.50;24.15;;;;;;;;;;12517868;28;20045;-83
2022/03/16 12:29:48;;;;;;;23.38;19.35;;;;;;;;;;12534019;28;20029;-83
2022/03/16 12:35:51;;;;;;;19.70;17.15;;;;;;;;;;12541598;28;20040;-80
2022/03/16 12:48:14;;;;;;;19.83;17.77;;;;;;;;;;12551611;28;20037;-82
2022/03/16 12:54:20;;;;;;;;;;;;;;;;;;12551570;28;20029;-81
2022/03/16 13:00:21;;;;;;;16.63;14.82;;;;;;;;;;12568629;28;19913;-81
2022/03/16 13:06:23;;;;;;;18.70;16.70;;;;;;;;;;12550787;28;20520;-77
2022/03/16 13:12:26;;;;;;;26.98;20.48;;;;;;;;;;12551412;28;20029;-84
2022/03/16 13:18:31;;;;;;;28.92;22.95;;;;;;;;;;12549953;28;20551;-77
2022/03/16 13:24:36;;;;;;;27.17;23.35;;;;;;;;;;12550918;28;20052;-76
2022/03/16 13:30:37;;;;;;;27.35;24.45;;;;;;;;;;12548564;28;20037;-77
2022/03/16 13:36:42;;;;;;;28.27;23.98;;;;;;;;;;12560441;28;20516;-77
2022/03/16 13:42:45;;;;;;;26.92;23.35;;;;;;;;;;12550027;28;20489;-76
2022/03/16 13:48:49;;;;;;;22.30;18.42;;;;;;;;;;12547670;28;20485;-75
2022/03/16 13:54:51;;;;;;;25.20;20.98;;;;;;;;;;12547408;28;20029;-74
2022/03/16 14:00:57;;;;;;;24.70;20.17;;;;;;;;;;12530951;28;20037;-76
2022/03/16 14:06:58;;;;;;;20.73;17.65;;;;;;;;;;12558304;28;20059;-77
2022/03/16 14:13:11;;;;;;;17.80;15.77;;;;;;;;;;12548140;28;20152;-78
2022/03/16 14:19:28;;;;;;;17.73;15.25;;;;;;;;;;12548603;28;20056;-77
2022/03/16 14:25:32;;;;;;;16.77;13.88;;;;;;;;;;12546945;28;20052;-79
2022/03/16 14:31:33;;;;;;;20.10;16.90;;;;;;;;;;12529377;28;20059;-76
2022/03/16 14:37:35;;;;;;;18.92;15.27;;;;;;;;;;12557155;28;20037;-76
2022/03/16 14:43:36;;;;;;;15.30;12.53;;;;;;;;;;12545796;28;20056;-78
2022/03/16 14:49:38;;;;;;;18.97;15.33;;;;;;;;;;12545142;28;20041;-80
2022/03/16 14:55:40;;;;;;;14.93;13.38;;;;;;;;;;12546679;28;20040;-83
2022/03/16 15:01:44;;;;;;;15.33;13.50;;;;;;;;;;12544544;28;20393;-79
2022/03/16 15:07:46;;;;;;;20.48;17.23;;;;;;;;;;12557516;28;20429;-79
2022/03/16 15:13:48;;;;;;;20.60;17.93;;;;;;;;;;12545363;28;20358;-79
2022/03/16 15:19:49;;;;;;;17.38;14.38;;;;;;;;;;12545214;28;20367;-78
2022/03/16 15:25:53;;;;;;;15.80;14.18;;;;;;;;;;12545046;28;20041;-78
2022/03/16 15:31:57;;;;;;;19.83;17.63;;;;;;;;;;12543911;28;20470;-77
2022/03/16 15:37:59;;;;;;;18.55;15.65;;;;;;;;;;12545064;28;20509;-79
2022/03/16 15:44:00;;;;;;;8.27;7.47;;;;;;;;;;12544741;28;20393;-78
2022/03/16 15:50:02;;;;;;;16.65;14.70;;;;;;;;;;12544096;28;20037;-78
2022/03/16 15:56:04;;;;;;;15.80;13.88;;;;;;;;;;12554193;28;20064;-78
2022/03/16 16:02:06;;;;;;;16.73;14.97;;;;;;;;;;12546013;28;20044;-78
2022/03/16 16:08:08;;;;;;;14.27;12.77;;;;;;;;;;12542582;28;20044;-78
2022/03/16 16:14:10;;;;;;;10.07;8.67;;;;;;;;;;12546803;28;20068;-78
2022/03/16 16:20:13;;;;;;;13.80;12.35;;;;;;;;;;12552487;28;20474;-78
2022/03/16 16:26:15;;;;;;;14.88;12.63;;;;;;;;;;12551926;28;20184;-79
2022/03/16 16:32:16;;;;;;;13.95;12.48;;;;;;;;;;12551900;28;20029;-79
2022/03/16 16:38:19;;;;;;;11.70;9.68;;;;;;;;;;12552239;28;20029;-78
2022/03/16 16:44:24;;;;;;;9.80;8.43;;;;;;;;;;12560123;28;20044;-77
2022/03/16 16:50:27;;;;;;;9.15;7.25;;;;;;;;;;12555518;28;20389;-79
2022/03/16 16:56:29;;;;;;;15.23;13.63;;;;;;;;;;12555719;28;20402;-75
2022/03/16 17:02:31;;;;;;;14.60;13.05;;;;;;;;;;12532950;28;20044;-74
2022/03/16 17:08:35;;;;;;;11.82;10.57;;;;;;;;;;12561328;28;20044;-79
2022/03/16 17:14:37;;;;;;;13.32;11.32;;;;;;;;;;12550563;28;20053;-76
2022/03/16 17:20:40;;;;;;;20.63;15.80;;;;;;;;;;12550797;28;20039;-72
2022/03/16 17:26:42;;;;;;;26.42;22.90;;;;;;;;;;12550121;28;20071;-73
2022/03/16 17:32:45;;;;;;;23.83;20.63;;;;;;;;;;12549886;28;20116;-74
2022/03/16 17:38:47;;;;;;;;;;;;;;;;;;12549169;28;20033;-75
2022/03/16 17:51:10;;;;;;;27.52;22.42;;;;;;;;;;12550221;28;20040;-76
2022/03/16 17:57:12;;;;;;;22.52;19.00;;;;;;;;;;12559643;28;20051;-75
2022/03/16 18:03:14;;;;;;;20.15;16.92;;;;;;;;;;12548692;28;20059;-75
2022/03/16 18:09:16;;;;;;;15.60;13.87;;;;;;;;;;12548646;28;20025;-75
2022/03/16 18:15:17;;;;;;;17.38;14.98;;;;;;;;;;12546631;28;20065;-74
2022/03/16 18:21:19;;;;;;;19.67;15.82;;;;;;;;;;12548243;28;20040;-75
2022/03/16 18:27:21;;;;;;;16.00;14.30;;;;;;;;;;12547360;28;20040;-73
2022/03/16 18:33:23;;;;;;;13.75;11.63;;;;;;;;;;12558464;28;20044;-76
2022/03/16 18:39:25;;;;;;;10.93;9.73;;;;;;;;;;12546065;28;20044;-84
2022/03/16 18:45:28;;;;;;;15.27;13.68;;;;;;;;;;12553649;28;20055;-80
2022/03/16 18:52:12;;;;;;;13.60;11.05;;;;;;;;;;12546711;28;20051;-80
2022/03/16 18:58:01;;;;;;;14.10;12.65;;;;;;;;;;12545953;28;20453;-79
2022/03/16 19:04:03;;;;;;;13.70;12.18;;;;;;;;;;12553138;28;20045;-75
2022/03/16 19:10:06;;;;;;;12.13;10.85;;;;;;;;;;12545896;28;20033;-79
2022/03/16 19:16:07;;;;;;;20.83;16.80;;;;;;;;;;12545398;28;20057;-79
2022/03/16 19:22:09;;;;;;;17.02;15.00;;;;;;;;;;12545387;28;20025;-82
2022/03/16 19:28:11;;;;;;;18.17;14.37;;;;;;;;;;12527337;28;20549;-81
2022/03/16 19:34:14;;;;;;;18.08;14.85;;;;;;;;;;12544710;28;20033;-82
2022/03/16 19:40:15;;;;;;;19.00;15.23;;;;;;;;;;12544690;28;20029;-82
2022/03/16 19:46:18;;;;;;;21.75;16.45;;;;;;;;;;12542889;28;20049;-82
2022/03/16 19:52:20;;;;;;;;;;;;;;;;;;12542565;28;20056;-83
2022/03/16 19:58:24;;;;;;;19.58;16.42;;;;;;;;;;12544391;28;19916;-82
2022/03/16 20:04:26;;;;;;;16.55;13.68;;;;;;;;;;12544925;28;20087;-82
2022/03/16 20:10:28;;;;;;;19.73;17.52;;;;;;;;;;12543607;28;20603;-81
2022/03/16 20:16:34;;;;;;;25.80;20.87;;;;;;;;;;12554485;28;20132;-81
2022/03/16 20:22:35;;;;;;;21.45;17.80;;;;;;;;;;12543781;28;20044;-81
2022/03/16 20:28:39;;;;;;;19.48;15.90;;;;;;;;;;12541451;28;20040;-82
2022/03/16 20:34:41;;;;;;;20.50;16.48;;;;;;;;;;12542639;28;20032;-81
2022/03/16 20:40:42;;;;;;;23.08;17.38;;;;;;;;;;12542882;28;20397;-83
2022/03/16 20:46:44;;;;;;;21.08;16.90;;;;;;;;;;12541694;28;20497;-82
2022/03/16 20:52:46;;;;;;;20.80;17.33;;;;;;;;;;12542101;28;20040;-82
2022/03/16 21:05:10;;;;;;;23.17;18.58;;;;;;;;;;12551293;28;20044;-82
2022/03/16 21:11:12;;;;;;;23.38;17.73;;;;;;;;;;12553284;28;20037;-78
2022/03/16 21:17:13;;;;;;;22.10;18.37;;;;;;;;;;12533729;28;20072;-78
2022/03/16 21:23:16;;;;;;;22.13;17.58;;;;;;;;;;12537093;28;20049;-78
2022/03/16 21:29:21;;;;;;;20.10;16.65;;;;;;;;;;12532665;28;20028;-78
2022/03/16 21:35:24;;;;;;;24.00;18.25;;;;;;;;;;12550815;28;20029;-78
2022/03/16 21:47:46;;;;;;;24.08;19.10;;;;;;;;;;12548741;28;20087;-78
2022/03/16 21:53:49;;;;;;;21.58;17.45;;;;;;;;;;12561142;28;20044;-78
2022/03/16 21:59:51;;;;;;;35.03;29.38;;;;;;;;;;12548025;28;20108;-77
2022/03/16 22:05:53;;;;;;;37.45;29.95;;;;;;;;;;12547463;28;20056;-78
2022/03/16 22:11:54;;;;;;;35.28;28.85;;;;;;;;;;12530054;28;20033;-78
2022/03/16 22:17:56;;;;;;;26.90;22.73;;;;;;;;;;12549197;28;20061;-78
2022/03/16 22:23:59;;;;;;;31.15;25.63;;;;;;;;;;12541639;28;20409;-78
2022/03/16 22:30:00;;;;;;;31.20;26.20;;;;;;;;;;12530520;28;20033;-77
2022/03/16 22:36:05;;;;;;;24.45;20.27;;;;;;;;;;12551055;28;20378;-81
2022/03/16 22:42:07;;;;;;;34.38;28.88;;;;;;;;;;12546330;28;20036;-82
2022/03/16 22:48:09;;;;;;;35.50;29.15;;;;;;;;;;12544797;28;20056;-81
2022/03/16 22:54:11;;;;;;;27.27;21.77;;;;;;;;;;12546695;28;20055;-81
2022/03/16 23:00:34;;;;;;;34.75;26.52;;;;;;;;;;12546500;28;20051;-78
2022/03/16 23:06:36;;;;;;;27.30;23.25;;;;;;;;;;12545774;28;20056;-78
2022/03/16 23:12:37;;;;;;;18.13;15.13;;;;;;;;;;12545677;28;20470;-78
2022/03/16 23:18:39;;;;;;;32.65;26.40;;;;;;;;;;12544866;28;20499;-78
2022/03/16 23:24:41;;;;;;;28.40;23.55;;;;;;;;;;12527553;28;20049;-77
2022/03/16 23:30:42;;;;;;;34.50;28.88;;;;;;;;;;12545533;28;20037;-78
2022/03/16 23:36:44;;;;;;;35.22;28.45;;;;;;;;;;12526916;28;20033;-78
2022/03/16 23:42:46;;;;;;;29.77;24.17;;;;;;;;;;12543165;28;20195;-78
2022/03/16 23:48:47;;;;;;;26.90;23.38;;;;;;;;;;12543623;28;20040;-78
2022/03/16 23:54:50;;;;;;;32.72;24.58;;;;;;;;;;12541779;28;20033;-77
